Billington, United Kingdom
Current Conditions -  °F | °C
As of 7:50 AM on Friday 31 Oct 2014 (Local Time) from EGNO Reporting Station
Broken Clouds Broken Clouds  
Wind Chill: 59°   Ceiling: 3400
Heat Index: 59°   Visibility: 5mi
Dew Point: 57°   Wind: 12mph
Humidity: 94%   Direction: 150°SSE
Pressure: 29.88"   Gusts: NA
Location:  53.82°N, 2.42°W
Report Text: EGNO 310750Z 15010KT 8000 BKN034 15/14 Q1012
Loading
Personal Weather Stations






























Interactive Weather Map New forecast layout! Learn more

10-Day Weather Forecast

Advertisements
Track Severe Weather on mobile